Time;durP1;ratioP1;P1;durP2;ratioP2;P2;SDS_P1;SDS_P2;PMS_P1;PMS_P2;Temp;Humidity;BMP_temperature;BMP_pressure;BME280_temperature;BME280_humidity;BME280_pressure;Samples;Min_cycle;Max_cycle;Signal;HPM_P1;HPM_P2
2024/02/09 00:00:08;;;;;;;2.10;0.85;;;12.10;86.70;;;;;;4989697;28;20064;-61
2024/02/09 00:02:35;;;;;;;2.25;0.93;;;12.20;86.60;;;;;;4989664;28;20086;-63
2024/02/09 00:05:01;;;;;;;4.88;0.90;;;12.20;86.30;;;;;;4988424;28;20077;-64
2024/02/09 00:07:27;;;;;;;3.28;1.00;;;12.30;86.10;;;;;;4981288;28;20518;-62
2024/02/09 00:09:53;;;;;;;4.22;0.90;;;12.30;85.90;;;;;;4983940;28;20050;-63
2024/02/09 00:12:20;;;;;;;2.58;0.90;;;12.30;85.80;;;;;;4979666;28;20030;-63
2024/02/09 00:14:47;;;;;;;5.22;0.73;;;12.40;85.70;;;;;;4984618;28;20039;-63
2024/02/09 00:17:14;;;;;;;4.72;0.90;;;12.40;85.70;;;;;;4990532;28;20034;-62
2024/02/09 00:19:40;;;;;;;2.83;0.75;;;12.40;85.30;;;;;;4987698;28;20383;-63
2024/02/09 00:22:05;;;;;;;4.55;0.82;;;12.40;84.80;;;;;;4991084;28;20053;-62
2024/02/09 00:24:31;;;;;;;5.50;1.10;;;12.40;84.70;;;;;;4989734;28;20085;-63
2024/02/09 00:27:00;;;;;;;3.80;0.68;;;12.40;84.50;;;;;;4990273;28;20038;-62
2024/02/09 00:29:28;;;;;;;4.15;0.70;;;12.40;84.30;;;;;;4986444;28;20118;-63
2024/02/09 00:31:54;;;;;;;5.10;1.10;;;12.50;84.10;;;;;;4987085;28;20371;-62
2024/02/09 00:34:20;;;;;;;5.72;1.00;;;12.40;84.20;;;;;;4990682;28;20110;-63
2024/02/09 00:36:47;;;;;;;5.47;1.25;;;12.50;84.30;;;;;;4989620;28;20034;-62
2024/02/09 00:39:22;;;;;;;3.78;1.10;;;12.50;84.30;;;;;;4989111;28;20113;-64
2024/02/09 00:41:47;;;;;;;;;;;12.50;84.20;;;;;;4991162;28;20030;-63
2024/02/09 00:44:13;;;;;;;4.10;0.70;;;12.50;84.30;;;;;;4989495;28;19972;-64
2024/02/09 00:46:42;;;;;;;2.83;0.73;;;12.50;84.00;;;;;;4988034;28;20117;-62
2024/02/09 00:49:09;;;;;;;4.72;1.20;;;12.50;84.00;;;;;;4986795;28;20039;-63
2024/02/09 00:51:36;;;;;;;4.88;1.10;;;12.50;84.10;;;;;;4988293;28;20034;-63
2024/02/09 00:54:02;;;;;;;2.75;0.65;;;12.40;84.20;;;;;;4985499;28;20418;-63
2024/02/09 00:56:28;;;;;;;5.60;0.80;;;12.40;84.20;;;;;;4987980;28;20038;-62
2024/02/09 00:58:54;;;;;;;2.95;1.10;;;12.40;84.30;;;;;;4985733;28;20061;-63
2024/02/09 01:01:23;;;;;;;5.57;1.20;;;12.40;84.30;;;;;;4986550;28;20050;-62
2024/02/09 01:03:48;;;;;;;2.90;0.90;;;12.40;84.50;;;;;;4987845;28;20454;-62
2024/02/09 01:06:14;;;;;;;3.92;1.02;;;12.40;84.50;;;;;;4992457;28;20022;-62
2024/02/09 01:08:40;;;;;;;5.03;1.17;;;12.40;84.50;;;;;;4990206;28;20514;-63
2024/02/09 01:11:09;;;;;;;3.95;1.20;;;12.40;84.50;;;;;;4984330;28;20084;-63
2024/02/09 02:46:26;;;;;;;2.78;1.13;;;11.80;86.20;;;;;;4985492;28;20038;-62
2024/02/09 03:05:24;;;;;;;2.85;1.20;;;11.60;87.40;;;;;;4984557;28;20133;-63
2024/02/09 03:07:52;;;;;;;2.53;1.20;;;11.50;87.60;;;;;;4984213;28;20049;-61
2024/02/09 03:10:19;;;;;;;2.17;1.10;;;11.50;87.80;;;;;;4981413;28;20433;-61
2024/02/09 03:12:45;;;;;;;2.67;1.30;;;11.50;88.70;;;;;;4987272;28;20333;-64
2024/02/09 03:15:11;;;;;;;4.45;1.45;;;11.50;88.00;;;;;;4985261;28;20113;-61
2024/02/09 03:17:41;;;;;;;2.38;1.40;;;11.50;88.00;;;;;;4983139;28;20038;-63
2024/02/09 03:20:07;;;;;;;2.28;1.08;;;11.50;88.20;;;;;;4985097;28;20058;-63
2024/02/09 03:22:34;;;;;;;3.80;1.25;;;11.50;88.10;;;;;;4985597;28;20061;-63
2024/02/09 03:25:04;;;;;;;3.08;1.23;;;11.50;88.00;;;;;;4983398;28;20034;-63
2024/02/09 03:27:37;;;;;;;2.58;1.20;;;11.50;87.90;;;;;;4984779;28;20031;-64
2024/02/09 03:30:06;;;;;;;4.50;1.40;;;11.50;88.10;;;;;;4986724;28;20517;-63
2024/02/09 03:32:33;;;;;;;4.05;1.35;;;11.50;88.10;;;;;;4982577;28;20049;-63
2024/02/09 03:35:01;;;;;;;3.47;1.40;;;11.50;88.10;;;;;;4984468;28;20046;-63
2024/02/09 03:37:27;;;;;;;7.22;1.40;;;11.50;88.40;;;;;;4985595;28;20041;-63
2024/02/09 03:39:56;;;;;;;4.88;1.30;;;11.50;88.50;;;;;;4984868;28;20038;-63
2024/02/09 03:42:23;;;;;;;2.67;1.20;;;11.50;88.80;;;;;;4987218;28;20121;-63
2024/02/09 03:44:55;;;;;;;3.17;1.20;;;11.50;88.60;;;;;;4986416;28;20034;-63
2024/02/09 03:47:26;;;;;;;3.78;1.30;;;11.50;88.70;;;;;;4983365;28;20781;-63
2024/02/09 03:49:55;;;;;;;3.28;1.50;;;11.50;88.50;;;;;;4983284;28;20034;-62
2024/02/09 03:52:21;;;;;;;3.83;1.30;;;11.50;88.50;;;;;;4986736;28;20525;-64
2024/02/09 03:54:51;;;;;;;3.10;1.38;;;11.50;88.50;;;;;;4982263;28;20030;-63
2024/02/09 03:57:17;;;;;;;3.85;1.48;;;11.50;88.60;;;;;;4983754;28;20536;-63
2024/02/09 03:59:42;;;;;;;6.70;1.58;;;11.40;88.60;;;;;;4981715;28;20035;-63
2024/02/09 04:02:09;;;;;;;4.00;1.08;;;11.40;88.60;;;;;;4988594;28;20038;-63
2024/02/09 04:04:34;;;;;;;2.25;1.20;;;11.40;88.80;;;;;;4984558;28;20113;-63
2024/02/09 04:07:00;;;;;;;3.05;1.30;;;11.40;88.80;;;;;;4978199;28;20137;-60
2024/02/09 04:09:26;;;;;;;4.15;1.42;;;11.40;89.00;;;;;;4981223;28;20064;-63
2024/02/09 04:11:54;;;;;;;3.83;1.50;;;11.30;89.10;;;;;;4986439;28;20030;-63
2024/02/09 04:14:19;;;;;;;4.20;1.60;;;11.30;89.30;;;;;;4985712;28;20030;-63
2024/02/09 04:16:49;;;;;;;5.47;1.65;;;11.30;89.20;;;;;;4984420;28;20089;-60
2024/02/09 04:19:16;;;;;;;2.42;1.13;;;11.30;89.20;;;;;;4986687;28;20030;-63
2024/02/09 04:21:47;;;;;;;3.58;1.60;;;11.30;89.30;;;;;;4983595;28;20106;-62
2024/02/09 04:24:14;;;;;;;4.45;1.50;;;11.30;89.40;;;;;;4984385;28;20398;-63
2024/02/09 04:26:40;;;;;;;5.95;1.90;;;11.30;89.50;;;;;;4983231;28;20034;-61
2024/02/09 04:29:07;;;;;;;4.63;2.05;;;11.30;89.50;;;;;;4982480;28;20124;-63
2024/02/09 04:31:32;;;;;;;3.97;1.60;;;11.30;89.70;;;;;;4983745;28;20038;-62
2024/02/09 04:33:58;;;;;;;2.03;1.50;;;11.30;89.70;;;;;;4985507;28;20387;-61
2024/02/09 04:36:24;;;;;;;4.78;1.88;;;11.30;89.80;;;;;;4986224;28;20031;-62
2024/02/09 04:38:51;;;;;;;5.13;1.83;;;11.30;89.90;;;;;;4981153;28;20506;-62
2024/02/09 04:41:18;;;;;;;4.88;1.80;;;11.40;90.00;;;;;;4983380;28;20057;-62
2024/02/09 04:43:44;;;;;;;4.85;1.50;;;11.30;90.00;;;;;;4981211;28;20033;-62
2024/02/09 04:46:09;;;;;;;3.95;1.40;;;11.30;90.00;;;;;;4980062;28;20027;-62
2024/02/09 04:48:35;;;;;;;4.47;1.70;;;11.30;90.00;;;;;;4977407;28;20042;-62
2024/02/09 04:51:06;;;;;;;3.88;1.85;;;11.40;90.00;;;;;;4982382;28;20299;-63
2024/02/09 04:53:32;;;;;;;2.78;1.45;;;11.40;90.00;;;;;;4978442;28;20112;-61
2024/02/09 04:55:58;;;;;;;3.65;1.77;;;11.40;90.00;;;;;;4977948;28;20121;-63
2024/02/09 04:58:25;;;;;;;4.15;1.58;;;11.40;89.90;;;;;;4979183;28;20042;-62
2024/02/09 05:00:51;;;;;;;2.00;1.35;;;11.40;89.90;;;;;;4979213;28;20035;-63
2024/02/09 05:03:17;;;;;;;2.25;1.33;;;11.40;89.70;;;;;;4984195;28;20161;-61
2024/02/09 05:05:44;;;;;;;2.92;1.50;;;11.40;89.50;;;;;;4981979;28;20034;-63
2024/02/09 05:08:09;;;;;;;3.53;1.60;;;11.40;89.50;;;;;;4987481;28;20542;-62
2024/02/09 05:10:37;;;;;;;2.20;1.27;;;11.40;89.60;;;;;;4983262;28;20034;-63
2024/02/09 05:13:02;;;;;;;2.70;1.30;;;11.30;89.50;;;;;;4981629;28;20042;-63
2024/02/09 05:15:29;;;;;;;1.40;1.20;;;11.30;89.60;;;;;;4980651;28;20042;-62
2024/02/09 05:17:54;;;;;;;2.65;1.80;;;11.30;89.60;;;;;;4986904;28;20038;-63
2024/02/09 05:20:20;;;;;;;4.47;2.78;;;11.30;89.50;;;;;;4983367;28;20147;-61
2024/02/09 05:22:46;;;;;;;4.43;2.22;;;11.40;89.60;;;;;;4985306;28;20685;-63
2024/02/09 05:25:13;;;;;;;1.65;1.52;;;11.40;89.50;;;;;;4984407;28;20038;-63
2024/02/09 05:27:39;;;;;;;3.10;2.30;;;11.40;89.60;;;;;;4986081;28;20031;-61
2024/02/09 05:30:08;;;;;;;3.08;2.30;;;11.40;89.50;;;;;;4981152;28;20038;-61
2024/02/09 05:32:34;;;;;;;2.17;1.50;;;11.40;89.40;;;;;;4991079;28;20027;-62
2024/02/09 05:35:00;;;;;;;2.10;1.15;;;11.40;89.30;;;;;;4988431;28;20089;-63
2024/02/09 05:37:26;;;;;;;2.20;1.00;;;11.40;89.20;;;;;;4989625;28;20039;-61
2024/02/09 05:39:52;;;;;;;2.47;1.10;;;11.40;89.20;;;;;;4988033;28;20454;-62
2024/02/09 05:42:18;;;;;;;3.97;1.10;;;11.50;89.10;;;;;;4989999;28;20477;-61
2024/02/09 05:44:44;;;;;;;2.60;0.90;;;11.50;89.00;;;;;;4990879;28;20443;-63
2024/02/09 05:47:09;;;;;;;2.95;1.00;;;11.50;89.00;;;;;;4988436;28;20117;-62
2024/02/09 05:49:37;;;;;;;1.70;1.10;;;11.50;88.90;;;;;;4989409;28;20514;-62
2024/02/09 05:52:08;;;;;;;1.52;1.10;;;11.50;88.80;;;;;;4991054;28;20058;-63
2024/02/09 05:54:34;;;;;;;4.22;1.40;;;11.50;88.80;;;;;;4984749;28;20109;-63
2024/02/09 05:57:00;;;;;;;1.85;0.98;;;11.50;88.60;;;;;;4989450;28;20121;-63
2024/02/09 05:59:25;;;;;;;1.90;1.40;;;11.50;88.50;;;;;;4988998;28;20441;-63
2024/02/09 06:01:52;;;;;;;5.22;1.88;;;11.50;88.50;;;;;;4989869;28;20403;-63
2024/02/09 06:04:18;;;;;;;3.13;1.50;;;11.60;88.60;;;;;;4983855;28;20038;-63
2024/02/09 06:06:44;;;;;;;5.78;2.20;;;11.50;88.40;;;;;;4989313;28;20034;-61
2024/02/09 06:09:10;;;;;;;5.18;2.25;;;11.50;88.30;;;;;;4987716;28;20034;-61
2024/02/09 06:11:36;;;;;;;4.00;2.67;;;11.50;88.30;;;;;;4988886;28;20057;-62
2024/02/09 06:14:02;;;;;;;5.32;2.67;;;11.50;88.50;;;;;;4988510;28;20045;-62
2024/02/09 06:16:28;;;;;;;8.05;2.80;;;11.50;88.60;;;;;;4989297;28;20495;-61
2024/02/09 06:18:53;;;;;;;6.47;2.80;;;11.40;88.60;;;;;;4988203;28;20105;-62
2024/02/09 06:21:19;;;;;;;4.65;2.58;;;11.40;88.70;;;;;;4987689;28;20034;-61
2024/02/09 06:23:46;;;;;;;5.28;2.60;;;11.40;88.80;;;;;;4987529;28;20034;-63
2024/02/09 06:26:14;;;;;;;5.13;2.60;;;11.30;88.80;;;;;;4983201;28;20054;-63
2024/02/09 06:28:40;;;;;;;5.55;2.58;;;11.30;89.00;;;;;;4989086;28;20154;-62
2024/02/09 06:31:06;;;;;;;3.50;2.20;;;11.30;89.00;;;;;;4986664;28;20038;-63
2024/02/09 06:33:31;;;;;;;5.53;2.50;;;11.20;89.10;;;;;;4989339;28;20069;-60
2024/02/09 06:35:58;;;;;;;3.60;2.03;;;11.20;89.20;;;;;;4985882;28;20036;-63
2024/02/09 06:38:24;;;;;;;3.00;2.00;;;11.20;89.30;;;;;;4988987;28;20069;-63
2024/02/09 06:40:53;;;;;;;6.25;2.30;;;11.10;89.30;;;;;;4986829;28;20074;-63
2024/02/09 06:43:21;;;;;;;4.45;1.77;;;11.10;89.50;;;;;;4988644;28;20125;-64
2024/02/09 06:45:46;;;;;;;5.20;1.95;;;11.10;89.70;;;;;;4988040;28;20057;-63
2024/02/09 06:48:13;;;;;;;4.53;1.98;;;11.10;89.90;;;;;;4987550;28;20474;-62
2024/02/09 06:50:39;;;;;;;3.47;2.38;;;11.00;90.00;;;;;;4987001;28;20547;-63
2024/02/09 06:53:07;;;;;;;2.92;2.15;;;11.10;90.00;;;;;;4988368;28;20031;-63
2024/02/09 06:55:34;;;;;;;4.03;2.28;;;11.10;90.00;;;;;;4989485;28;20045;-63
2024/02/09 06:58:00;;;;;;;3.05;1.65;;;11.00;90.00;;;;;;4988592;28;20038;-63
2024/02/09 07:00:26;;;;;;;3.72;1.75;;;11.10;90.00;;;;;;4988997;28;20041;-62
2024/02/09 07:02:52;;;;;;;4.32;2.15;;;11.10;90.10;;;;;;4986838;28;20038;-63
2024/02/09 07:05:22;;;;;;;2.72;1.70;;;11.10;90.10;;;;;;4984190;28;20035;-63
2024/02/09 07:07:49;;;;;;;2.83;1.90;;;11.10;90.10;;;;;;4988547;28;20039;-63
2024/02/09 07:10:17;;;;;;;2.10;1.90;;;11.10;90.10;;;;;;4987474;28;20034;-61
2024/02/09 07:12:46;;;;;;;3.75;1.77;;;11.10;90.10;;;;;;4987024;28;20074;-62
2024/02/09 07:15:14;;;;;;;4.05;1.90;;;11.10;90.20;;;;;;4987470;28;20034;-60
2024/02/09 07:17:40;;;;;;;3.45;1.65;;;11.20;90.10;;;;;;4987687;28;20121;-62
2024/02/09 07:20:06;;;;;;;5.57;2.00;;;11.20;90.00;;;;;;4987617;28;20133;-64
2024/02/09 07:22:35;;;;;;;3.20;2.20;;;11.20;90.00;;;;;;4987274;28;20509;-63
2024/02/09 07:25:01;;;;;;;4.40;2.45;;;11.20;90.00;;;;;;4988522;28;20517;-63
2024/02/09 07:27:26;;;;;;;6.82;2.72;;;11.20;90.00;;;;;;4994935;28;20152;-63
2024/02/09 07:29:52;;;;;;;5.97;2.97;;;11.20;90.00;;;;;;4990131;28;20124;-61
2024/02/09 07:32:17;;;;;;;5.90;3.30;;;11.20;90.00;;;;;;4989965;28;20031;-62
2024/02/09 07:34:43;;;;;;;6.80;3.45;;;11.10;90.00;;;;;;4989381;28;20041;-63
2024/02/09 07:37:11;;;;;;;7.75;4.30;;;11.10;90.00;;;;;;4989899;28;20030;-62
2024/02/09 07:39:37;;;;;;;7.43;4.00;;;11.10;90.10;;;;;;4990057;28;20113;-60
2024/02/09 07:42:04;;;;;;;8.77;4.30;;;11.10;90.20;;;;;;4988093;28;20464;-62
2024/02/09 07:44:30;;;;;;;7.20;4.65;;;11.10;90.30;;;;;;4993762;28;20575;-64
2024/02/09 07:46:56;;;;;;;7.07;4.68;;;11.10;90.20;;;;;;4989188;28;20096;-62
2024/02/09 07:49:24;;;;;;;9.85;5.32;;;11.10;90.30;;;;;;4990031;28;20049;-62
2024/02/09 07:51:50;;;;;;;9.07;5.85;;;11.10;90.30;;;;;;4989849;28;20034;-63
2024/02/09 07:54:16;;;;;;;8.48;4.35;;;11.00;90.30;;;;;;4989967;28;20085;-62
2024/02/09 07:56:42;;;;;;;6.85;4.55;;;11.00;90.70;;;;;;4989238;28;20502;-62
2024/02/09 07:59:07;;;;;;;6.22;4.32;;;11.00;90.30;;;;;;4989590;28;20030;-62
2024/02/09 08:01:33;;;;;;;5.82;4.53;;;11.00;90.40;;;;;;4994148;28;20097;-63
2024/02/09 08:03:59;;;;;;;7.18;4.43;;;11.00;90.40;;;;;;4989646;28;20117;-63
2024/02/09 08:06:25;;;;;;;5.05;4.13;;;11.00;90.40;;;;;;4989742;28;20113;-62
2024/02/09 08:08:52;;;;;;;4.22;3.83;;;11.00;90.50;;;;;;4989030;28;20051;-61
2024/02/09 08:11:19;;;;;;;5.55;4.20;;;11.00;90.60;;;;;;4989799;28;20026;-62
2024/02/09 08:13:45;;;;;;;5.80;3.83;;;11.00;90.60;;;;;;4989732;28;20101;-61
2024/02/09 08:16:10;;;;;;;5.97;4.20;;;11.00;90.60;;;;;;4982484;28;20026;-62
2024/02/09 08:18:36;;;;;;;6.80;5.20;;;11.10;90.70;;;;;;4990406;28;20034;-63
2024/02/09 08:21:02;;;;;;;10.82;5.13;;;11.10;90.70;;;;;;4989257;28;20065;-63
2024/02/09 08:23:29;;;;;;;9.07;5.60;;;11.10;90.70;;;;;;4988776;28;20665;-62
2024/02/09 08:25:55;;;;;;;5.30;4.40;;;11.10;90.70;;;;;;4987041;28;20049;-63
2024/02/09 08:28:20;;;;;;;7.20;4.25;;;11.10;90.80;;;;;;4984857;28;20405;-62
2024/02/09 08:30:46;;;;;;;7.75;4.32;;;11.10;90.80;;;;;;4986454;28;20038;-61
2024/02/09 08:33:12;;;;;;;6.88;4.15;;;11.20;90.90;;;;;;4989021;28;20042;-62
2024/02/09 08:35:38;;;;;;;5.65;4.38;;;11.20;90.90;;;;;;4990442;28;20019;-62
2024/02/09 08:38:03;;;;;;;6.70;4.38;;;11.20;90.80;;;;;;4992956;28;20057;-62
2024/02/09 08:40:29;;;;;;;7.22;5.10;;;11.20;90.80;;;;;;4993815;28;20038;-63
2024/02/09 08:42:54;;;;;;;7.88;4.10;;;11.30;91.30;;;;;;4992676;28;20045;-63
2024/02/09 08:45:20;;;;;;;7.80;4.95;;;11.20;90.80;;;;;;4992765;28;20493;-62
2024/02/09 08:47:46;;;;;;;7.38;4.63;;;11.30;90.80;;;;;;4992979;28;20027;-62
2024/02/09 08:50:11;;;;;;;5.13;4.32;;;11.40;90.80;;;;;;4989540;28;20267;-61
2024/02/09 08:52:37;;;;;;;5.97;4.18;;;11.30;90.80;;;;;;4993128;28;20030;-61
2024/02/09 08:55:02;;;;;;;4.53;4.07;;;11.30;90.80;;;;;;4999053;28;20025;-61
2024/02/09 08:57:29;;;;;;;4.72;3.95;;;11.40;90.90;;;;;;4993078;28;20073;-63
2024/02/09 08:59:54;;;;;;;5.57;3.92;;;11.40;90.90;;;;;;4992745;28;20057;-61
2024/02/09 09:02:20;;;;;;;6.10;4.13;;;11.40;90.90;;;;;;4990252;28;20125;-62
2024/02/09 09:04:45;;;;;;;8.15;4.55;;;11.40;90.90;;;;;;4991857;28;20030;-63
2024/02/09 09:07:12;;;;;;;5.95;4.15;;;11.50;90.90;;;;;;4992306;28;20030;-62
2024/02/09 09:09:38;;;;;;;6.35;4.30;;;11.50;90.80;;;;;;4993625;28;20050;-63
2024/02/09 09:12:07;;;;;;;6.22;4.50;;;11.50;90.80;;;;;;4992164;28;20076;-63
2024/02/09 09:14:34;;;;;;;8.07;3.90;;;11.60;90.70;;;;;;4992377;28;20113;-63
2024/02/09 09:17:00;;;;;;;9.70;3.92;;;11.60;90.70;;;;;;4991492;28;20077;-63
2024/02/09 09:19:27;;;;;;;7.50;4.18;;;11.60;90.70;;;;;;4992561;28;20486;-63
2024/02/09 09:21:52;;;;;;;5.68;3.95;;;11.70;90.70;;;;;;4992141;28;20038;-62
2024/02/09 09:24:19;;;;;;;5.05;4.30;;;11.70;90.70;;;;;;4992266;28;20502;-62
2024/02/09 09:26:45;;;;;;;8.52;4.38;;;11.70;90.60;;;;;;4996222;28;20030;-61
2024/02/09 09:29:12;;;;;;;8.18;4.03;;;11.70;90.60;;;;;;4985400;28;20045;-62
2024/02/09 09:31:38;;;;;;;7.20;4.18;;;11.80;90.50;;;;;;4992175;28;20090;-61
2024/02/09 09:34:04;;;;;;;4.50;4.05;;;11.80;90.40;;;;;;4992119;28;20031;-62
2024/02/09 09:36:31;;;;;;;7.97;3.95;;;11.80;90.40;;;;;;4987328;28;20042;-61
2024/02/09 09:38:58;;;;;;;5.22;3.92;;;11.80;90.40;;;;;;4987805;28;20085;-63
2024/02/09 09:41:24;;;;;;;5.15;3.55;;;11.80;90.40;;;;;;4992043;28;20031;-63
2024/02/09 09:43:50;;;;;;;4.78;3.88;;;11.80;90.40;;;;;;4993282;28;20041;-62
2024/02/09 09:46:21;;;;;;;6.22;4.00;;;11.80;90.50;;;;;;4991296;28;20045;-63
2024/02/09 09:48:52;;;;;;;6.10;3.97;;;11.80;90.50;;;;;;4991146;28;20150;-62
2024/02/09 09:51:20;;;;;;;7.38;3.67;;;11.80;90.50;;;;;;4988756;28;20543;-62
2024/02/09 09:53:50;;;;;;;5.70;3.90;;;11.80;90.50;;;;;;4990743;28;20041;-62
2024/02/09 09:56:17;;;;;;;6.20;4.18;;;11.80;90.50;;;;;;4992477;28;20045;-63
2024/02/09 09:58:42;;;;;;;6.05;3.88;;;11.80;90.60;;;;;;4991584;28;20038;-63
2024/02/09 10:01:09;;;;;;;6.05;4.13;;;11.80;90.60;;;;;;4996355;28;20287;-63
2024/02/09 10:03:38;;;;;;;6.57;4.38;;;11.80;90.70;;;;;;4991667;28;20030;-63
2024/02/09 10:06:04;;;;;;;4.32;3.65;;;11.80;90.80;;;;;;4990644;28;20096;-63
2024/02/09 10:08:31;;;;;;;9.20;4.50;;;11.80;90.90;;;;;;4991322;28;20037;-62
2024/02/09 10:10:57;;;;;;;5.32;3.70;;;11.90;91.00;;;;;;4994865;28;20066;-61
2024/02/09 10:13:26;;;;;;;7.78;4.00;;;11.90;91.00;;;;;;4991556;28;20030;-62
2024/02/09 10:15:52;;;;;;;5.88;3.88;;;12.00;91.10;;;;;;4990667;28;20031;-62
2024/02/09 10:18:18;;;;;;;7.15;4.15;;;12.10;91.00;;;;;;4995835;28;20038;-62
2024/02/09 10:20:46;;;;;;;6.82;3.75;;;12.10;91.00;;;;;;4990663;28;20453;-63
2024/02/09 10:23:12;;;;;;;5.43;3.63;;;12.30;91.00;;;;;;4991176;28;20129;-63
2024/02/09 10:25:39;;;;;;;3.75;3.15;;;12.20;90.90;;;;;;4990967;28;20155;-62
2024/02/09 10:28:04;;;;;;;5.03;3.97;;;12.30;90.90;;;;;;4990761;28;20038;-62
2024/02/09 10:30:30;;;;;;;4.18;3.47;;;12.30;90.90;;;;;;4991379;28;20038;-63
2024/02/09 10:32:57;;;;;;;4.53;3.50;;;12.40;90.80;;;;;;4990012;28;20494;-62
2024/02/09 10:35:23;;;;;;;8.55;3.78;;;12.40;90.70;;;;;;4994437;28;20031;-62
2024/02/09 10:37:49;;;;;;;4.63;3.40;;;12.50;90.70;;;;;;4990441;28;20057;-63
2024/02/09 10:40:16;;;;;;;4.85;3.58;;;12.60;90.70;;;;;;4989065;28;20218;-63
2024/02/09 10:42:44;;;;;;;5.68;3.30;;;12.60;90.70;;;;;;4988144;28;20042;-63
2024/02/09 10:45:11;;;;;;;5.57;3.45;;;12.60;90.60;;;;;;4990288;28;20522;-63
2024/02/09 10:47:38;;;;;;;7.68;3.50;;;12.70;90.60;;;;;;4990465;28;20092;-63
2024/02/09 10:50:10;;;;;;;4.90;3.55;;;12.70;90.50;;;;;;4990676;28;20576;-62
2024/02/09 10:52:42;;;;;;;4.97;3.45;;;12.70;90.40;;;;;;4988081;28;20418;-63
2024/02/09 10:55:09;;;;;;;6.30;3.10;;;12.80;90.40;;;;;;4989952;28;20158;-62
2024/02/09 10:57:35;;;;;;;4.65;3.22;;;12.80;90.40;;;;;;4990690;28;20031;-63
2024/02/09 11:00:03;;;;;;;5.50;3.00;;;12.90;90.50;;;;;;4989898;28;20557;-62
2024/02/09 11:02:30;;;;;;;4.25;3.10;;;13.00;90.30;;;;;;4990605;28;20062;-63
2024/02/09 11:04:58;;;;;;;4.80;2.85;;;13.00;90.20;;;;;;4989373;28;20042;-62
2024/02/09 11:07:25;;;;;;;4.50;2.80;;;13.00;90.10;;;;;;4990225;28;20026;-61
2024/02/09 11:09:51;;;;;;;4.53;3.08;;;13.10;90.00;;;;;;4989951;28;20038;-63
2024/02/09 11:12:19;;;;;;;6.00;2.70;;;13.20;90.00;;;;;;4990345;28;20033;-62
2024/02/09 11:14:45;;;;;;;4.53;2.72;;;13.20;89.80;;;;;;4989577;28;20086;-63
2024/02/09 11:17:15;;;;;;;4.88;3.10;;;13.20;89.70;;;;;;4987276;28;20116;-62
2024/02/09 11:19:41;;;;;;;5.53;2.75;;;13.30;89.30;;;;;;4989958;28;20133;-61
2024/02/09 11:22:09;;;;;;;4.40;2.63;;;13.40;89.20;;;;;;4990069;28;20034;-62
2024/02/09 11:24:35;;;;;;;6.13;2.90;;;13.40;88.80;;;;;;4994247;28;20425;-61
2024/02/09 11:27:02;;;;;;;6.45;2.53;;;13.40;88.80;;;;;;4989666;28;20026;-63
2024/02/09 11:29:28;;;;;;;3.53;2.40;;;13.50;88.80;;;;;;4990305;28;20069;-62
2024/02/09 11:32:02;;;;;;;3.17;2.50;;;13.50;88.70;;;;;;4989773;28;20054;-63
2024/02/09 11:34:29;;;;;;;4.22;2.38;;;13.60;88.60;;;;;;4989816;28;20057;-63
2024/02/09 11:37:01;;;;;;;4.80;2.88;;;13.60;88.40;;;;;;4988907;28;20100;-61
2024/02/09 11:39:27;;;;;;;3.05;2.40;;;13.70;88.10;;;;;;4989947;28;20088;-61
2024/02/09 11:41:53;;;;;;;2.95;2.30;;;13.70;88.00;;;;;;4989249;28;20050;-63
2024/02/09 11:44:20;;;;;;;3.22;1.92;;;13.80;88.00;;;;;;4985607;28;20039;-63
2024/02/09 11:46:46;;;;;;;5.57;2.92;;;13.80;87.80;;;;;;4986133;28;20092;-62
2024/02/09 11:49:14;;;;;;;4.25;2.38;;;13.90;87.70;;;;;;4986235;28;20049;-63
2024/02/09 11:51:40;;;;;;;2.95;2.58;;;13.90;87.60;;;;;;4988729;28;20125;-64
2024/02/09 11:54:10;;;;;;;4.88;2.80;;;13.90;87.60;;;;;;4986273;28;20088;-63
2024/02/09 11:56:36;;;;;;;5.40;2.95;;;13.90;87.40;;;;;;4986183;28;20530;-62
2024/02/09 11:59:05;;;;;;;4.82;2.78;;;13.90;87.60;;;;;;4990463;28;20038;-63
2024/02/09 12:01:32;;;;;;;4.13;2.85;;;13.90;87.70;;;;;;4989362;28;20575;-62
2024/02/09 12:03:58;;;;;;;5.72;3.70;;;13.90;87.60;;;;;;4987285;28;20121;-62
2024/02/09 12:06:25;;;;;;;5.00;3.63;;;13.80;87.50;;;;;;4989321;28;20042;-63
2024/02/09 12:08:50;;;;;;;4.93;3.20;;;13.90;87.70;;;;;;4988842;28;20031;-63
2024/02/09 12:11:18;;;;;;;4.00;3.08;;;13.90;87.60;;;;;;4995287;28;20085;-63
2024/02/09 12:13:45;;;;;;;5.63;3.20;;;13.90;87.60;;;;;;4998645;28;20450;-63
2024/02/09 12:16:11;;;;;;;4.18;2.58;;;13.90;87.60;;;;;;4999280;28;20045;-63
2024/02/09 12:18:37;;;;;;;7.30;2.92;;;13.80;87.40;;;;;;4995375;28;20045;-63
2024/02/09 12:21:03;;;;;;;5.65;2.83;;;13.80;87.30;;;;;;4995732;28;20038;-62
2024/02/09 12:23:29;;;;;;;3.55;2.88;;;13.80;87.10;;;;;;4995999;28;20071;-62
2024/02/09 12:25:56;;;;;;;5.88;3.05;;;13.80;87.10;;;;;;4995447;28;20084;-62
2024/02/09 12:28:23;;;;;;;4.65;2.95;;;13.80;86.90;;;;;;4995757;28;20033;-63
2024/02/09 12:30:51;;;;;;;4.32;2.70;;;13.80;86.90;;;;;;4995109;28;20056;-62
2024/02/09 12:33:18;;;;;;;4.63;2.58;;;13.80;87.00;;;;;;4998466;28;20026;-62
2024/02/09 12:35:44;;;;;;;4.35;3.05;;;13.70;87.10;;;;;;4993165;28;20050;-62
2024/02/09 12:38:14;;;;;;;6.45;4.15;;;13.70;87.30;;;;;;4995658;28;20061;-62
2024/02/09 12:40:40;;;;;;;6.90;3.30;;;13.70;87.20;;;;;;4992330;28;20041;-63
2024/02/09 12:43:11;;;;;;;6.40;2.83;;;13.70;87.10;;;;;;4995657;28;20034;-63
2024/02/09 12:45:37;;;;;;;3.50;2.80;;;13.70;87.30;;;;;;4993281;28;20062;-63
2024/02/09 12:48:03;;;;;;;5.75;3.50;;;13.70;87.40;;;;;;4995111;28;20062;-63
2024/02/09 12:50:28;;;;;;;7.28;4.00;;;13.70;87.40;;;;;;4996711;28;20027;-62
2024/02/09 12:52:54;;;;;;;6.97;4.90;;;13.70;87.40;;;;;;4994712;28;20091;-62
2024/02/09 12:55:20;;;;;;;3.85;3.22;;;13.60;87.40;;;;;;4994132;28;20030;-63
2024/02/09 12:57:48;;;;;;;5.40;2.95;;;13.60;87.60;;;;;;4992140;28;20113;-63
2024/02/09 13:00:14;;;;;;;4.57;3.17;;;13.70;87.70;;;;;;4990144;28;20541;-62
2024/02/09 13:02:40;;;;;;;5.10;3.10;;;13.60;87.80;;;;;;4994565;28;20061;-63
2024/02/09 13:05:06;;;;;;;3.88;2.90;;;13.70;87.60;;;;;;4994829;28;20040;-63
2024/02/09 13:07:34;;;;;;;4.47;3.08;;;13.70;87.50;;;;;;4995519;28;20096;-62
2024/02/09 13:10:00;;;;;;;4.35;3.15;;;13.70;87.40;;;;;;4994740;28;20411;-63
2024/02/09 13:12:27;;;;;;;2.83;2.55;;;13.70;87.30;;;;;;4995597;28;20027;-63
2024/02/09 13:14:52;;;;;;;4.05;2.40;;;13.70;87.30;;;;;;4995478;28;20609;-62
2024/02/09 13:17:19;;;;;;;7.18;2.88;;;13.70;87.10;;;;;;4995613;28;20121;-63
2024/02/09 13:19:46;;;;;;;4.70;2.70;;;13.70;87.00;;;;;;4999178;28;20034;-63
2024/02/09 13:22:11;;;;;;;3.97;2.67;;;13.60;86.90;;;;;;4986035;28;20403;-63
2024/02/09 13:24:42;;;;;;;5.10;3.58;;;13.60;86.90;;;;;;4991738;28;20117;-63
2024/02/09 13:27:12;;;;;;;12.70;7.70;;;13.60;86.90;;;;;;4992124;28;20087;-63
2024/02/09 13:29:38;;;;;;;8.18;6.45;;;13.60;86.90;;;;;;4991884;28;20042;-63
2024/02/09 13:32:04;;;;;;;6.90;5.40;;;13.60;86.90;;;;;;4991985;28;20113;-63
2024/02/09 13:34:30;;;;;;;8.10;3.88;;;13.60;86.70;;;;;;4991624;28;20446;-62
2024/02/09 13:36:56;;;;;;;6.47;4.47;;;13.60;86.80;;;;;;4991097;28;20053;-63
2024/02/09 13:39:22;;;;;;;3.60;3.00;;;13.60;86.80;;;;;;4991969;28;20038;-63
2024/02/09 13:41:47;;;;;;;4.40;2.55;;;13.60;86.90;;;;;;4996304;28;20417;-63
2024/02/09 13:44:15;;;;;;;5.38;2.83;;;13.70;86.70;;;;;;4991937;28;20038;-62
2024/02/09 13:46:42;;;;;;;5.22;2.92;;;13.60;86.50;;;;;;4988470;28;20066;-63
2024/02/09 13:49:08;;;;;;;4.03;2.95;;;13.60;86.40;;;;;;4991744;28;20050;-62
2024/02/09 13:51:34;;;;;;;6.68;3.92;;;13.70;86.40;;;;;;4991586;28;20108;-63
2024/02/09 13:54:02;;;;;;;7.90;5.43;;;13.70;86.50;;;;;;4991554;28;20417;-61
2024/02/09 13:56:28;;;;;;;4.07;2.95;;;13.70;86.70;;;;;;4987163;28;20161;-62
2024/02/09 13:58:54;;;;;;;4.22;2.88;;;13.70;86.60;;;;;;4991573;28;20173;-61
2024/02/09 14:01:21;;;;;;;4.47;3.53;;;13.70;86.60;;;;;;4991591;28;20125;-63
2024/02/09 14:03:49;;;;;;;4.32;3.28;;;13.70;86.40;;;;;;4991041;28;20085;-63
2024/02/09 14:06:17;;;;;;;4.50;2.85;;;13.70;86.20;;;;;;4988302;28;20062;-64
2024/02/09 14:08:45;;;;;;;5.40;2.90;;;13.80;86.10;;;;;;4988123;28;20046;-63
2024/02/09 14:11:14;;;;;;;6.53;3.50;;;13.70;86.00;;;;;;4990038;28;20018;-63
2024/02/09 14:13:42;;;;;;;3.97;3.53;;;13.70;85.90;;;;;;4989487;28;20031;-63
2024/02/09 14:16:07;;;;;;;8.73;4.20;;;13.70;85.90;;;;;;4995516;28;20303;-63
2024/02/09 14:18:34;;;;;;;6.07;3.67;;;13.70;85.90;;;;;;4990259;28;20042;-62
2024/02/09 14:21:00;;;;;;;6.00;3.53;;;13.70;85.90;;;;;;4984476;28;20070;-62
2024/02/09 14:23:27;;;;;;;5.95;3.60;;;13.60;85.80;;;;;;4990939;28;20054;-62
2024/02/09 14:25:56;;;;;;;5.35;3.65;;;13.60;85.90;;;;;;4987679;28;20125;-63
2024/02/09 14:28:26;;;;;;;4.38;3.22;;;13.60;85.90;;;;;;4983096;28;20564;-63
2024/02/09 14:30:51;;;;;;;4.20;3.00;;;13.60;86.00;;;;;;4981883;28;20126;-63
2024/02/09 14:33:20;;;;;;;4.00;3.15;;;13.50;86.80;;;;;;4980861;28;20125;-63